createdAt,value
2016-03-27T00:00:16.358Z,71.97
2016-03-27T00:01:16.410Z,72.07
2016-03-27T00:02:16.413Z,72.07
2016-03-27T00:03:16.431Z,72.26
2016-03-27T00:04:16.450Z,72.07
2016-03-27T00:05:16.483Z,71.97
2016-03-27T00:06:16.486Z,72.07
2016-03-27T00:07:16.505Z,72.16
2016-03-27T00:08:16.508Z,72.74
2016-03-27T00:09:16.526Z,72.64
2016-03-27T00:10:16.544Z,72.35
2016-03-27T00:11:16.563Z,72.55
2016-03-27T00:12:16.580Z,72.55
2016-03-27T00:13:16.583Z,72.55
2016-03-27T00:14:16.601Z,72.55
2016-03-27T00:15:16.635Z,72.74
2016-03-27T00:16:16.512Z,72.64
2016-03-27T00:17:16.651Z,72.55
2016-03-27T00:18:16.655Z,72.83
2016-03-27T00:19:16.658Z,72.83
2016-03-27T00:20:16.661Z,73.11
2016-03-27T00:21:16.664Z,72.55
2016-03-27T00:22:16.655Z,72.64
2016-03-27T00:23:16.668Z,72.83
2016-03-27T00:24:16.682Z,72.07
2016-03-27T00:25:16.694Z,72.16
2016-03-27T00:26:16.707Z,72.16
2016-03-27T00:27:16.722Z,72.16
2016-03-27T00:28:16.737Z,72.16
2016-03-27T00:29:16.754Z,72.26
2016-03-27T00:30:16.769Z,71.97
2016-03-27T00:31:16.770Z,71.97
2016-03-27T00:32:16.786Z,71.88
2016-03-27T00:33:16.804Z,71.88
2016-03-27T00:34:16.837Z,71.97
2016-03-27T00:35:16.855Z,71.78
2016-03-27T00:36:16.871Z,71.78
2016-03-27T00:37:16.874Z,71.22
2016-03-27T00:38:16.893Z,71.59
2016-03-27T00:39:16.911Z,71.5
2016-03-27T00:40:16.960Z,71.69
2016-03-27T00:41:16.948Z,71.5
2016-03-27T00:42:16.950Z,71.31
2016-03-27T00:43:16.985Z,72.16
2016-03-27T00:44:16.987Z,71.78
2016-03-27T00:45:17.005Z,71.69
2016-03-27T00:46:17.414Z,71.69
2016-03-27T00:47:17.042Z,71.5
2016-03-27T00:48:17.060Z,71.5
2016-03-27T00:49:17.078Z,71.69
2016-03-27T00:50:17.097Z,71.02
2016-03-27T00:51:17.115Z,71.12
2016-03-27T00:52:17.118Z,70.64
2016-03-27T00:53:17.136Z,71.12
2016-03-27T00:54:17.169Z,71.41
2016-03-27T00:55:17.173Z,71.41
2016-03-27T00:56:17.191Z,71.69
2016-03-27T00:57:17.225Z,70.93
2016-03-27T00:58:17.228Z,70.93
2016-03-27T00:59:17.246Z,71.02
2016-03-27T01:00:17.264Z,70.74
2016-03-27T01:01:17.299Z,70.26
2016-03-27T01:02:17.301Z,70.45
2016-03-27T01:03:17.319Z,70.36
2016-03-27T01:04:17.322Z,70.45
2016-03-27T01:05:17.340Z,70.36
2016-03-27T01:06:17.359Z,70.45
2016-03-27T01:07:17.393Z,70.17
2016-03-27T01:08:17.399Z,70.36
2016-03-27T01:09:17.417Z,70.45
2016-03-27T01:10:17.436Z,70.36
2016-03-27T01:11:17.453Z,70.26
2016-03-27T01:12:17.457Z,70.36
2016-03-27T01:13:17.475Z,70.1
2016-03-27T01:14:17.493Z,70.1
2016-03-27T01:15:17.512Z,70.26
2016-03-27T01:16:17.530Z,70.17
2016-03-27T01:17:17.548Z,70.07
2016-03-27T01:18:17.567Z,70.45
2016-03-27T01:19:17.585Z,70.36
2016-03-27T01:20:17.619Z,70.26
2016-03-27T01:21:17.622Z,70.36
2016-03-27T01:22:17.640Z,70.45
2016-03-27T01:23:17.658Z,70.64
2016-03-27T01:24:17.693Z,70.64
2016-03-27T01:25:17.679Z,70.45
2016-03-27T01:26:17.712Z,71.22
2016-03-27T01:27:17.716Z,70.64
2016-03-27T01:28:17.734Z,71.22
2016-03-27T01:29:17.768Z,71.31
2016-03-27T01:30:17.771Z,71.5
2016-03-27T01:31:17.804Z,71.41
2016-03-27T01:32:17.807Z,71.31
2016-03-27T01:33:17.076Z,71.5
2016-03-27T01:34:17.844Z,71.5
2016-03-27T01:35:17.862Z,71.5
2016-03-27T01:36:17.881Z,71.78
2016-03-27T01:37:17.898Z,71.59
2016-03-27T01:38:17.917Z,71.31
2016-03-27T01:39:17.920Z,71.88
2016-03-27T01:40:17.939Z,71.97
2016-03-27T01:41:17.957Z,71.69
2016-03-27T01:42:17.975Z,72.16
2016-03-27T01:43:17.993Z,72.16
2016-03-27T01:44:17.996Z,72.26
2016-03-27T01:45:18.030Z,72.16
2016-03-27T01:46:18.033Z,72.26
2016-03-27T01:47:18.066Z,72.07
2016-03-27T01:48:18.069Z,72.45
2016-03-27T01:49:18.103Z,72.79
2016-03-27T01:50:18.138Z,72.55
2016-03-27T01:51:18.124Z,72.74
2016-03-27T01:52:18.158Z,72.64
2016-03-27T01:53:18.177Z,72.79
2016-03-27T01:54:18.179Z,72.41
2016-03-27T01:55:18.182Z,72.6
2016-03-27T01:56:18.216Z,72.55
2016-03-27T01:57:18.234Z,72.83
2016-03-27T01:58:18.237Z,72.6
2016-03-27T01:59:18.255Z,72.79
2016-03-27T02:00:18.273Z,72.99
2016-03-27T02:01:18.292Z,72.64
2016-03-27T02:02:18.310Z,72.64
2016-03-27T02:03:18.343Z,72.83
2016-03-27T02:04:18.363Z,73.18
2016-03-27T02:05:18.365Z,72.7
2016-03-27T02:06:18.368Z,72.74
2016-03-27T02:07:18.412Z,73.3
2016-03-27T02:08:18.412Z,73.27
2016-03-27T02:09:18.430Z,73.18
2016-03-27T02:10:19.176Z,73.18
2016-03-27T02:11:18.462Z,72.99
2016-03-27T02:12:18.480Z,73.18
2016-03-27T02:13:18.499Z,73.08
2016-03-27T02:14:18.517Z,73.27
2016-03-27T02:15:18.535Z,73.18
2016-03-27T02:16:18.569Z,73.27
2016-03-27T02:17:18.572Z,73.08
2016-03-27T02:18:18.575Z,73.18
2016-03-27T02:19:18.593Z,72.89
2016-03-27T02:20:18.611Z,73.36
2016-03-27T02:21:18.630Z,73.18
2016-03-27T02:22:18.648Z,72.99
2016-03-27T02:23:18.666Z,73.18
2016-03-27T02:24:18.668Z,72.7
2016-03-27T02:25:18.702Z,72.79
2016-03-27T02:26:18.736Z,71.94
2016-03-27T02:27:18.724Z,72.03
2016-03-27T02:28:18.742Z,71.84
2016-03-27T02:29:18.760Z,71.46
2016-03-27T02:30:18.779Z,71.59
2016-03-27T02:31:18.797Z,71.41
2016-03-27T02:32:18.815Z,71.41
2016-03-27T02:33:18.849Z,70.64
2016-03-27T02:34:18.851Z,71.22
2016-03-27T02:35:18.871Z,71.22
2016-03-27T02:36:18.873Z,71.12
2016-03-27T02:37:18.907Z,70.64
2016-03-27T02:38:18.910Z,70.26
2016-03-27T02:39:18.928Z,70.36
2016-03-27T02:40:18.962Z,70.45
2016-03-27T02:41:18.965Z,70.64
2016-03-27T02:42:18.983Z,70.64
2016-03-27T02:43:19.017Z,70.45
2016-03-27T02:44:19.019Z,70.64
2016-03-27T02:45:19.022Z,70.36
2016-03-27T02:46:19.040Z,70.17
2016-03-27T02:47:19.075Z,70.17
2016-03-27T02:48:19.108Z,70.17
2016-03-27T02:49:19.111Z,70.45
2016-03-27T02:50:19.114Z,70.36
2016-03-27T02:51:19.132Z,70.36
2016-03-27T02:52:19.150Z,70.26
2016-03-27T02:53:19.169Z,70.26
2016-03-27T02:54:19.186Z,70.36
2016-03-27T02:55:19.205Z,70.36
2016-03-27T02:56:19.208Z,70.26
2016-03-27T02:57:19.226Z,69.79
2016-03-27T02:58:19.245Z,70.26
2016-03-27T02:59:19.263Z,69.79
2016-03-27T03:00:19.281Z,70.07
2016-03-27T03:01:19.300Z,69.41
2016-03-27T03:02:19.318Z,69.41
2016-03-27T03:03:19.336Z,69.5
2016-03-27T03:04:19.355Z,69.31
2016-03-27T03:05:19.373Z,69.41
2016-03-27T03:06:19.391Z,69.31
2016-03-27T03:07:19.394Z,69.5
2016-03-27T03:08:19.428Z,69.6
2016-03-27T03:09:19.430Z,69.41
2016-03-27T03:10:19.449Z,69.31
2016-03-27T03:11:19.467Z,69.41
2016-03-27T03:12:19.485Z,69.12
2016-03-27T03:13:19.504Z,69.21
2016-03-27T03:14:19.522Z,69.31
2016-03-27T03:15:19.556Z,69.21
2016-03-27T03:16:19.575Z,69.41
2016-03-27T03:17:19.561Z,69.41
2016-03-27T03:18:19.595Z,69.21
2016-03-27T03:19:19.614Z,69.21
2016-03-27T03:20:19.631Z,69.41
2016-03-27T03:21:19.635Z,69.31
2016-03-27T03:22:19.669Z,69.02
2016-03-27T03:23:19.671Z,68.74
2016-03-27T03:24:19.690Z,69.12
2016-03-27T03:25:19.708Z,68.74
2016-03-27T03:26:19.727Z,68.96
2016-03-27T03:27:19.744Z,69.06
2016-03-27T03:28:19.747Z,69.02
2016-03-27T03:29:19.765Z,69.31
2016-03-27T03:30:19.800Z,69.41
2016-03-27T03:31:19.818Z,69.21
2016-03-27T03:32:19.835Z,69.41
2016-03-27T03:33:19.839Z,69.21
2016-03-27T03:34:19.857Z,69.12
2016-03-27T03:35:19.875Z,69.12
2016-03-27T03:36:19.894Z,69.41
2016-03-27T03:37:19.912Z,69.79
2016-03-27T03:38:19.930Z,69.88
2016-03-27T03:39:19.949Z,69.6
2016-03-27T03:40:19.951Z,69.5
2016-03-27T03:41:19.970Z,69.69
2016-03-27T03:42:20.004Z,69.79
2016-03-27T03:43:20.006Z,69.79
2016-03-27T03:44:20.025Z,70.17
2016-03-27T03:45:20.043Z,69.98
2016-03-27T03:46:20.061Z,69.98
2016-03-27T03:47:20.095Z,69.79
2016-03-27T03:48:20.082Z,69.41
2016-03-27T03:49:20.116Z,69.79
2016-03-27T03:50:20.119Z,69.88
2016-03-27T03:51:20.137Z,69.88
2016-03-27T03:52:20.155Z,69.88
2016-03-27T03:53:20.189Z,70.17
2016-03-27T03:54:20.192Z,70.07
2016-03-27T03:55:20.210Z,70.17
2016-03-27T03:56:20.229Z,70.07
2016-03-27T03:57:20.247Z,70.45
2016-03-27T03:58:20.266Z,70.36
2016-03-27T03:59:20.268Z,70.26
2016-03-27T04:00:20.286Z,70.07
2016-03-27T04:01:20.305Z,70.54
2016-03-27T04:02:20.354Z,70.07
2016-03-27T04:03:20.357Z,70.54
2016-03-27T04:04:20.360Z,70.45
2016-03-27T04:05:20.378Z,70.26
2016-03-27T04:06:20.396Z,70.64
2016-03-27T04:07:20.432Z,70.64
2016-03-27T04:08:20.434Z,70.36
2016-03-27T04:09:20.437Z,70.36
2016-03-27T04:10:20.472Z,70.64
2016-03-27T04:11:20.474Z,70.64
2016-03-27T04:12:20.508Z,70.64
2016-03-27T04:13:20.511Z,70.45
2016-03-27T04:14:20.529Z,70.26
2016-03-27T04:15:20.547Z,70.64
2016-03-27T04:16:20.566Z,70.45
2016-03-27T04:17:20.662Z,70.64
2016-03-27T04:18:20.603Z,70.26
2016-03-27T04:19:20.621Z,70.36
2016-03-27T04:20:20.623Z,70.64
2016-03-27T04:21:20.642Z,70.26
2016-03-27T04:22:20.660Z,70.17
2016-03-27T04:23:20.678Z,70.07
2016-03-27T04:24:20.697Z,70.17
2016-03-27T04:25:20.730Z,70.64
2016-03-27T04:26:20.733Z,70.26
2016-03-27T04:27:20.752Z,70.07
2016-03-27T04:28:20.770Z,70.45
2016-03-27T04:29:20.772Z,70.36
2016-03-27T04:30:20.791Z,70.07
2016-03-27T04:31:20.824Z,70.07
2016-03-27T04:32:20.874Z,69.88
2016-03-27T04:33:20.674Z,70.26
2016-03-27T04:34:20.864Z,70.26
2016-03-27T04:35:20.882Z,70.17
2016-03-27T04:36:20.901Z,70.07
2016-03-27T04:37:20.920Z,70.17
2016-03-27T04:38:20.922Z,70.17
2016-03-27T04:39:20.940Z,70.36
2016-03-27T04:40:20.958Z,69.41
2016-03-27T04:41:20.977Z,69.69
2016-03-27T04:42:20.995Z,69.41
2016-03-27T04:43:21.013Z,69.69
2016-03-27T04:44:21.016Z,70.36
2016-03-27T04:45:21.050Z,69.88
2016-03-27T04:46:21.053Z,70.17
2016-03-27T04:47:21.102Z,69.98
2016-03-27T04:48:21.089Z,69.41
2016-03-27T04:49:21.108Z,69.69
2016-03-27T04:50:21.125Z,69.6
2016-03-27T04:51:21.144Z,69.88
2016-03-27T04:52:21.163Z,69.31
2016-03-27T04:53:21.180Z,69.41
2016-03-27T04:54:21.199Z,69.41
2016-03-27T04:55:21.218Z,69.21
2016-03-27T04:56:21.220Z,69.41
2016-03-27T04:57:21.254Z,69.41
2016-03-27T04:58:21.272Z,69.12
2016-03-27T04:59:21.274Z,69.21
2016-03-27T05:00:21.293Z,69.41
2016-03-27T05:01:21.312Z,69.69
2016-03-27T05:02:21.376Z,69.02
2016-03-27T05:03:21.348Z,68.93
2016-03-27T05:04:21.351Z,68.84
2016-03-27T05:05:21.384Z,68.84
2016-03-27T05:06:21.404Z,68.65
2016-03-27T05:07:21.406Z,68.93
2016-03-27T05:08:21.440Z,68.36
2016-03-27T05:09:21.443Z,68.55
2016-03-27T05:10:21.461Z,68.93
2016-03-27T05:11:21.479Z,68.65
2016-03-27T05:12:21.497Z,68.36
2016-03-27T05:13:21.516Z,68.17
2016-03-27T05:14:21.533Z,68.84
2016-03-27T05:15:21.553Z,68.93
2016-03-27T05:16:21.555Z,68.17
2016-03-27T05:17:21.542Z,68.17
2016-03-27T05:18:21.592Z,67.69
2016-03-27T05:19:21.610Z,67.98
2016-03-27T05:20:21.628Z,68.07
2016-03-27T05:21:21.647Z,67.88
2016-03-27T05:22:21.649Z,67.98
2016-03-27T05:23:21.668Z,67.6
2016-03-27T05:24:21.686Z,67.41
2016-03-27T05:25:21.719Z,67.41
2016-03-27T05:26:21.739Z,67.6
2016-03-27T05:27:21.757Z,67.69
2016-03-27T05:28:21.759Z,67.54
2016-03-27T05:29:21.794Z,67.44
2016-03-27T05:30:21.796Z,67.6
2016-03-27T05:31:21.814Z,67.54
2016-03-27T05:32:21.863Z,67.54
2016-03-27T05:33:21.851Z,67.25
2016-03-27T05:34:21.869Z,67.25
2016-03-27T05:35:21.872Z,67.07
2016-03-27T05:36:21.921Z,67.07
2016-03-27T05:37:21.908Z,66.59
2016-03-27T05:38:21.927Z,66.59
2016-03-27T05:39:21.961Z,67.25
2016-03-27T05:40:21.963Z,67.07
2016-03-27T05:41:21.982Z,66.97
2016-03-27T05:42:22.000Z,66.97
2016-03-27T05:43:22.034Z,66.39
2016-03-27T05:44:22.037Z,66.68
2016-03-27T05:45:22.055Z,66.97
2016-03-27T05:46:22.073Z,66.59
2016-03-27T05:47:22.169Z,66.59
2016-03-27T05:48:22.094Z,66.59
2016-03-27T05:49:22.113Z,66.78
2016-03-27T05:50:22.131Z,65.92
2016-03-27T05:51:22.149Z,66.2
2016-03-27T05:52:22.168Z,67.07
2016-03-27T05:53:22.186Z,66.3
2016-03-27T05:54:22.204Z,66.11
2016-03-27T05:55:22.222Z,66.3
2016-03-27T05:56:22.225Z,66.3
2016-03-27T05:57:22.259Z,66.11
2016-03-27T05:58:22.262Z,66.2
2016-03-27T05:59:22.296Z,66.2
2016-03-27T06:00:22.298Z,66.49
2016-03-27T06:01:22.317Z,66.39
2016-03-27T06:02:22.413Z,66.39
2016-03-27T06:03:22.353Z,65.64
2016-03-27T06:04:22.388Z,65.92
2016-03-27T06:05:22.390Z,66.2
2016-03-27T06:06:22.408Z,66.02
2016-03-27T06:07:22.427Z,66.59
2016-03-27T06:08:22.445Z,66.02
2016-03-27T06:09:22.463Z,65.86
2016-03-27T06:10:22.482Z,65.67
2016-03-27T06:11:22.500Z,65.64
2016-03-27T06:12:22.503Z,65.86
2016-03-27T06:13:22.537Z,65.67
2016-03-27T06:14:22.555Z,65
2016-03-27T06:15:22.557Z,64.15
2016-03-27T06:16:22.576Z,64.24
2016-03-27T06:17:22.594Z,64.53
2016-03-27T06:18:22.628Z,63.96
2016-03-27T06:19:22.631Z,63.29
2016-03-27T06:20:22.649Z,62.72
2016-03-27T06:21:22.667Z,62.43
2016-03-27T06:22:22.686Z,62.15
2016-03-27T06:23:22.704Z,62.15
2016-03-27T06:24:22.722Z,61.86
2016-03-27T06:25:22.741Z,61.42
2016-03-27T06:26:22.602Z,61.1
2016-03-27T06:27:22.778Z,61.86
2016-03-27T06:28:22.796Z,61.77
2016-03-27T06:29:22.813Z,61.8
2016-03-27T06:30:22.833Z,61.51
2016-03-27T06:31:22.851Z,61.9
2016-03-27T06:32:22.868Z,61.38
2016-03-27T06:33:22.888Z,61.61
2016-03-27T06:34:22.905Z,62.53
2016-03-27T06:35:22.924Z,62.53
2016-03-27T06:36:22.926Z,62.43
2016-03-27T06:37:22.945Z,62.75
2016-03-27T06:38:22.963Z,62.65
2016-03-27T06:39:22.981Z,62.85
2016-03-27T06:40:23.000Z,62.53
2016-03-27T06:41:23.018Z,62.85
2016-03-27T06:42:23.051Z,62.75
2016-03-27T06:43:23.055Z,62.56
2016-03-27T06:44:23.120Z,62.65
2016-03-27T06:45:23.123Z,62.27
2016-03-27T06:46:23.156Z,62.46
2016-03-27T06:47:23.112Z,62.37
2016-03-27T06:48:23.131Z,62.27
2016-03-27T06:49:23.150Z,62.56
2016-03-27T06:50:23.183Z,62.56
2016-03-27T06:51:23.201Z,62.27
2016-03-27T06:52:23.219Z,62.18
2016-03-27T06:53:23.238Z,61.9
2016-03-27T06:54:23.255Z,62.56
2016-03-27T06:55:23.275Z,61.9
2016-03-27T06:56:23.293Z,61.8
2016-03-27T06:57:23.310Z,61.8
2016-03-27T06:58:23.330Z,62.46
2016-03-27T06:59:23.347Z,61.9
2016-03-27T07:00:23.350Z,62.46
2016-03-27T07:01:23.385Z,62.18
2016-03-27T07:02:23.387Z,61.9
2016-03-27T07:03:23.405Z,62.65
2016-03-27T07:04:23.424Z,62.65
2016-03-27T07:05:23.442Z,62.56
2016-03-27T07:06:23.460Z,62.56
2016-03-27T07:07:23.479Z,62.37
2016-03-27T07:08:23.497Z,62.75
2016-03-27T07:09:23.515Z,62.75
2016-03-27T07:10:23.548Z,63.42
2016-03-27T07:11:23.568Z,63.51
2016-03-27T07:12:23.586Z,64.75
2016-03-27T07:13:23.588Z,65.03
2016-03-27T07:14:23.607Z,65.61
2016-03-27T07:15:23.625Z,65.61
2016-03-27T07:16:23.659Z,65.99
2016-03-27T07:17:23.662Z,65.99
2016-03-27T07:18:23.680Z,67.03
2016-03-27T07:19:23.698Z,67.22
2016-03-27T07:20:23.733Z,68.27
2016-03-27T07:21:23.735Z,70.37
2016-03-27T07:22:23.769Z,70.65
2016-03-27T07:23:23.772Z,70.52
2016-03-27T07:24:23.806Z,71.95
2016-03-27T07:25:23.824Z,73.28
2016-03-27T07:26:23.842Z,73.85
2016-03-27T07:27:23.830Z,74.14
2016-03-27T07:28:23.848Z,74.14
2016-03-27T07:29:23.881Z,74.99
2016-03-27T07:30:23.900Z,75.67
2016-03-27T07:31:23.918Z,75.47
2016-03-27T07:32:23.921Z,75.67
2016-03-27T07:33:23.955Z,75.47
2016-03-27T07:34:23.973Z,76.04
2016-03-27T07:35:23.976Z,76.42
2016-03-27T07:36:24.010Z,76.61
2016-03-27T07:37:24.028Z,75.67
2016-03-27T07:38:24.062Z,76.9
2016-03-27T07:39:24.065Z,76.71
2016-03-27T07:40:24.082Z,77.28
2016-03-27T07:41:24.102Z,77.28
2016-03-27T07:42:24.104Z,77.47
2016-03-27T07:43:24.122Z,77.95
2016-03-27T07:44:24.157Z,77.37
2016-03-27T07:45:24.175Z,76.61
2016-03-27T07:46:24.192Z,76.04
2016-03-27T07:47:24.195Z,75.09
2016-03-27T07:48:24.214Z,74.52
2016-03-27T07:49:24.232Z,75.09
2016-03-27T07:50:24.250Z,76.23
2016-03-27T07:51:24.269Z,75.67
2016-03-27T07:52:24.303Z,75.19
2016-03-27T07:53:24.321Z,76.33
2016-03-27T07:54:24.324Z,76.42
2016-03-27T07:55:24.342Z,77
2016-03-27T07:56:24.360Z,77.47
2016-03-27T07:57:24.395Z,78.61
2016-03-27T07:58:24.397Z,78.14
2016-03-27T07:59:24.415Z,77.56
2016-03-27T08:00:24.434Z,78.9
2016-03-27T08:01:24.436Z,79.09
2016-03-27T08:02:24.470Z,78.71
2016-03-27T08:03:24.488Z,78.33
2016-03-27T08:04:24.507Z,77.85
2016-03-27T08:05:24.524Z,78.04
2016-03-27T08:06:24.544Z,77.66
2016-03-27T08:07:24.562Z,78.23
2016-03-27T08:08:24.579Z,79.09
2016-03-27T08:09:24.599Z,78.71
2016-03-27T08:10:24.601Z,79.19
2016-03-27T08:11:24.634Z,79.09
2016-03-27T08:12:24.638Z,78.14
2016-03-27T08:13:24.671Z,78.71
2016-03-27T08:14:24.690Z,78.04
2016-03-27T08:15:24.693Z,78.14
2016-03-27T08:16:24.711Z,78.04
2016-03-27T08:17:24.729Z,78.14
2016-03-27T08:18:24.748Z,79.85
2016-03-27T08:19:24.781Z,80.13
2016-03-27T08:20:24.784Z,80.23
2016-03-27T08:21:24.803Z,80.9
2016-03-27T08:22:24.821Z,81.47
2016-03-27T08:23:24.839Z,80.99
2016-03-27T08:24:24.858Z,82.61
2016-03-27T08:25:24.875Z,83.14
2016-03-27T08:26:24.894Z,82.76
2016-03-27T08:27:24.913Z,83.9
2016-03-27T08:28:24.930Z,84.38
2016-03-27T08:29:24.933Z,84.56
2016-03-27T08:30:24.952Z,84.76
2016-03-27T08:31:24.970Z,85.14
2016-03-27T08:32:24.988Z,85.71
2016-03-27T08:33:25.007Z,85.14
2016-03-27T08:34:25.041Z,85.71
2016-03-27T08:35:25.059Z,85.9
2016-03-27T08:36:25.077Z,85.14
2016-03-27T08:37:25.080Z,84
2016-03-27T08:38:25.098Z,83.81
2016-03-27T08:39:25.117Z,85.14
2016-03-27T08:40:25.135Z,85.61
2016-03-27T08:41:25.153Z,85.24
2016-03-27T08:42:25.171Z,85.14
2016-03-27T08:43:25.190Z,85.9
2016-03-27T08:44:25.192Z,85.61
2016-03-27T08:45:25.226Z,86.18
2016-03-27T08:46:25.229Z,86.28
2016-03-27T08:47:25.262Z,85.61
2016-03-27T08:48:25.282Z,85.71
2016-03-27T08:49:25.300Z,85.99
2016-03-27T08:50:25.333Z,86.18
2016-03-27T08:51:25.337Z,86.57
2016-03-27T08:52:25.355Z,86.28
2016-03-27T08:53:25.357Z,86.76
2016-03-27T08:54:25.392Z,86.85
2016-03-27T08:55:25.394Z,86.18
2016-03-27T08:56:25.428Z,85.75
2016-03-27T08:57:25.447Z,85.66
2016-03-27T08:58:25.449Z,85.37
2016-03-27T08:59:25.467Z,85.94
2016-03-27T09:00:25.485Z,85.85
2016-03-27T09:01:25.504Z,85.47
2016-03-27T09:02:25.522Z,85.94
2016-03-27T09:03:25.540Z,85.08
2016-03-27T09:04:25.559Z,85.28
2016-03-27T09:05:25.577Z,85.37
2016-03-27T09:06:25.596Z,85.08
2016-03-27T09:07:25.596Z,85.18
2016-03-27T09:08:25.614Z,85.18
2016-03-27T09:09:25.649Z,85.85
2016-03-27T09:10:25.651Z,85.04
2016-03-27T09:11:25.685Z,85.52
2016-03-27T09:12:25.688Z,85.66
2016-03-27T09:13:25.706Z,85.66
2016-03-27T09:14:25.724Z,86.32
2016-03-27T09:15:25.743Z,86.13
2016-03-27T09:16:25.777Z,86.66
2016-03-27T09:17:25.795Z,86.38
2016-03-27T09:18:25.798Z,86.85
2016-03-27T09:19:25.816Z,86.85
2016-03-27T09:20:25.849Z,86.94
2016-03-27T09:21:25.853Z,86.57
2016-03-27T09:22:25.871Z,86.38
2016-03-27T09:23:25.900Z,86.76
2016-03-27T09:24:25.891Z,86.09
2016-03-27T09:25:25.897Z,85.42
2016-03-27T09:26:25.904Z,85.61
2016-03-27T09:27:25.910Z,85.42
2016-03-27T09:28:25.920Z,86.18
2016-03-27T09:29:25.934Z,86.18
2016-03-27T09:30:25.792Z,86.18
2016-03-27T09:31:25.962Z,85.42
2016-03-27T09:32:25.961Z,85.42
2016-03-27T09:33:25.991Z,85.42
2016-03-27T09:34:26.008Z,85.99
2016-03-27T09:35:26.024Z,86.18
2016-03-27T09:36:26.042Z,85.24
2016-03-27T09:37:26.058Z,84.38
2016-03-27T09:38:26.076Z,85.04
2016-03-27T09:39:26.078Z,85.71
2016-03-27T09:40:26.111Z,85.71
2016-03-27T09:41:26.114Z,86.28
2016-03-27T09:42:26.131Z,85.61
2016-03-27T09:43:26.149Z,86.28
2016-03-27T09:44:26.167Z,85.42
2016-03-27T09:45:26.185Z,85.71
2016-03-27T09:46:26.188Z,85.8
2016-03-27T09:47:26.221Z,85.71
2016-03-27T09:48:26.239Z,85.9
2016-03-27T09:49:26.257Z,85.9
2016-03-27T09:50:26.260Z,84.76
2016-03-27T09:51:26.295Z,84.76
2016-03-27T09:52:26.312Z,84.47
2016-03-27T09:53:26.315Z,84.19
2016-03-27T09:54:26.333Z,84.28
2016-03-27T09:55:26.368Z,84.38
2016-03-27T09:56:26.386Z,84.56
2016-03-27T09:57:26.388Z,83.23
2016-03-27T09:58:26.407Z,83.33
2016-03-27T09:59:26.425Z,82.76
2016-03-27T10:00:26.458Z,82.86
2016-03-27T10:01:26.462Z,83.52
2016-03-27T10:02:26.480Z,83.29
2016-03-27T10:03:26.498Z,83.48
2016-03-27T10:04:26.517Z,83.39
2016-03-27T10:05:26.535Z,82.81
2016-03-27T10:06:26.553Z,82.48
2016-03-27T10:07:26.572Z,82.28
2016-03-27T10:08:26.590Z,82.28
2016-03-27T10:09:26.593Z,81.71
2016-03-27T10:10:26.627Z,81.62
2016-03-27T10:11:26.629Z,81.62
2016-03-27T10:12:26.647Z,81.33
2016-03-27T10:13:26.666Z,81.43
2016-03-27T10:14:25.918Z,81.24
2016-03-27T10:15:26.702Z,81.62
2016-03-27T10:16:26.721Z,81.24
2016-03-27T10:17:26.739Z,81.05
2016-03-27T10:18:26.757Z,81.52
2016-03-27T10:19:26.776Z,81.33
2016-03-27T10:20:26.778Z,82.28
2016-03-27T10:21:26.813Z,81.33
2016-03-27T10:22:26.831Z,81.33
2016-03-27T10:23:26.848Z,80.66
2016-03-27T10:24:26.852Z,80.47
2016-03-27T10:25:26.886Z,80.29
2016-03-27T10:26:26.888Z,80.76
2016-03-27T10:27:26.907Z,80.66
2016-03-27T10:28:26.925Z,81.43
2016-03-27T10:29:26.943Z,81.33
2016-03-27T10:30:26.961Z,81.43
2016-03-27T10:31:26.964Z,81.05
2016-03-27T10:32:26.982Z,81.24
2016-03-27T10:33:27.001Z,81.24
2016-03-27T10:34:27.035Z,80.47
2016-03-27T10:35:27.037Z,80.66
2016-03-27T10:36:27.056Z,80.1
2016-03-27T10:37:27.074Z,80.1
2016-03-27T10:38:27.108Z,80.29
2016-03-27T10:39:27.111Z,81.33
2016-03-27T10:40:27.129Z,80.57
2016-03-27T10:41:27.147Z,80.57
2016-03-27T10:42:27.166Z,79.81
2016-03-27T10:43:27.184Z,79.72
2016-03-27T10:44:27.202Z,79.38
2016-03-27T10:45:27.236Z,79.47
2016-03-27T10:46:27.239Z,80.52
2016-03-27T10:47:27.258Z,80.57
2016-03-27T10:48:27.276Z,79.91
2016-03-27T10:49:27.293Z,80.42
2016-03-27T10:50:27.312Z,79.38
2016-03-27T10:51:27.331Z,78.42
2016-03-27T10:52:27.348Z,77.47
2016-03-27T10:53:27.367Z,77.95
2016-03-27T10:54:27.370Z,77.95
2016-03-27T10:55:27.388Z,78.61
2016-03-27T10:56:27.406Z,78.14
2016-03-27T10:57:27.425Z,78.04
2016-03-27T10:58:27.443Z,77.66
2016-03-27T10:59:27.477Z,77.76
2016-03-27T11:00:27.480Z,77.19
2016-03-27T11:01:27.498Z,76.81
2016-03-27T11:02:27.531Z,76.52
2016-03-27T11:03:27.535Z,75.85
2016-03-27T11:04:27.553Z,75.51
2016-03-27T11:05:27.571Z,74.08
2016-03-27T11:06:27.606Z,74.37
2016-03-27T11:07:27.624Z,74.65
2016-03-27T11:08:27.626Z,74.27
2016-03-27T11:09:27.660Z,73.89
2016-03-27T11:10:27.678Z,73.41
2016-03-27T11:11:27.697Z,72.17
2016-03-27T11:12:27.699Z,72.02
2016-03-27T11:13:26.968Z,71.73
2016-03-27T11:14:27.752Z,71.17
2016-03-27T11:15:27.754Z,70.4
2016-03-27T11:16:27.788Z,70.4
2016-03-27T11:17:27.807Z,70.4
2016-03-27T11:18:27.809Z,70.12
2016-03-27T11:19:27.828Z,70.31
2016-03-27T11:20:27.846Z,70.5
2016-03-27T11:21:27.879Z,70.31
2016-03-27T11:22:27.883Z,70.31
2016-03-27T11:23:27.901Z,69.54
2016-03-27T11:24:27.934Z,70.59
2016-03-27T11:25:27.937Z,70.12
2016-03-27T11:26:27.956Z,69.01
2016-03-27T11:27:27.990Z,69.77
2016-03-27T11:28:28.008Z,69.68
2016-03-27T11:29:28.026Z,69.1
2016-03-27T11:30:28.029Z,68.53
2016-03-27T11:31:28.063Z,67.58
2016-03-27T11:32:28.081Z,67.68
2016-03-27T11:33:28.084Z,66.91
2016-03-27T11:34:28.118Z,66.72
2016-03-27T11:35:28.137Z,66.72
2016-03-27T11:36:28.170Z,66.82
2016-03-27T11:37:28.172Z,67.68
2016-03-27T11:38:28.191Z,67.68
2016-03-27T11:39:28.225Z,68.72
2016-03-27T11:40:28.228Z,68.72
2016-03-27T11:41:28.246Z,68.53
2016-03-27T11:42:28.264Z,68.72
2016-03-27T11:43:28.299Z,68.91
2016-03-27T11:44:28.301Z,68.63
2016-03-27T11:45:28.335Z,68.34
2016-03-27T11:46:28.354Z,68.12
2016-03-27T11:47:28.356Z,69.07
2016-03-27T11:48:28.374Z,68.98
2016-03-27T11:49:31.408Z,69.17
2016-03-27T11:50:28.427Z,68.5
2016-03-27T11:51:28.445Z,69.07
2016-03-27T11:52:28.448Z,69.35
2016-03-27T11:53:28.482Z,70.21
2016-03-27T11:54:28.500Z,69.83
2016-03-27T11:55:28.518Z,69.42
2016-03-27T11:56:28.521Z,69.35
2016-03-27T11:57:28.555Z,69.04
2016-03-27T11:58:28.589Z,68.5
2016-03-27T11:59:28.592Z,68.88
2016-03-27T12:00:28.610Z,68.5
2016-03-27T12:01:28.628Z,68.5
2016-03-27T12:02:28.646Z,67.83
2016-03-27T12:03:28.696Z,67.35
2016-03-27T12:04:28.683Z,66.72
2016-03-27T12:05:28.701Z,66.82
2016-03-27T12:06:28.720Z,66.44
2016-03-27T12:07:28.753Z,66.05
2016-03-27T12:08:28.756Z,65.29
2016-03-27T12:09:28.806Z,65.86
2016-03-27T12:10:28.794Z,65.77
2016-03-27T12:11:28.811Z,65.61
2016-03-27T12:12:28.830Z,65.42
2016-03-27T12:13:28.847Z,64.65
2016-03-27T12:14:28.882Z,63.8
2016-03-27T12:15:28.899Z,62.75
2016-03-27T12:16:28.919Z,63.6
2016-03-27T12:17:28.937Z,63.42
2016-03-27T12:18:28.971Z,62.3
2016-03-27T12:19:28.973Z,62.4
2016-03-27T12:20:29.008Z,61.35
2016-03-27T12:21:29.026Z,60.39
2016-03-27T12:22:29.028Z,58.77
2016-03-27T12:23:29.063Z,58.48
2016-03-27T12:24:29.065Z,57.82
2016-03-27T12:25:29.114Z,57.34
2016-03-27T12:26:29.117Z,55.62
2016-03-27T12:27:29.135Z,56.1
2016-03-27T12:28:29.154Z,57.06
2016-03-27T12:29:29.203Z,56.58
2016-03-27T12:30:29.190Z,55.82
2016-03-27T12:31:29.209Z,56.48
2016-03-27T12:32:29.227Z,56.29
2016-03-27T12:33:29.261Z,55.72
2016-03-27T12:34:29.264Z,56.1
2016-03-27T12:35:29.298Z,56.67
2016-03-27T12:36:29.316Z,56.01
2016-03-27T12:37:29.334Z,55.94
2016-03-27T12:38:29.353Z,55.94
2016-03-27T12:39:29.386Z,55.75
2016-03-27T12:40:29.389Z,55.36
2016-03-27T12:41:29.422Z,56.1
2016-03-27T12:42:29.426Z,55.82
2016-03-27T12:43:29.444Z,56.38
2016-03-27T12:44:29.462Z,56.01
2016-03-27T12:45:29.496Z,56.01
2016-03-27T12:46:29.515Z,55.94
2016-03-27T12:47:29.533Z,56.13
2016-03-27T12:48:29.566Z,55.46
2016-03-27T12:49:29.570Z,55.84
2016-03-27T12:50:29.588Z,55.94
2016-03-27T12:51:29.621Z,54.99
2016-03-27T12:52:29.641Z,55.55
2016-03-27T12:53:29.659Z,55.18
2016-03-27T12:54:29.677Z,55.46
2016-03-27T12:55:29.695Z,55.08